Flight Track Log - Related Links

Times and Time Zones

All times are in EDT time to prevent confusion due to time zone crossing. See the EJA361 flight status page for this flight to view local times or setup timezone preferences in your user account.

Time Position Orientation Groundspeed Altitude Reporting Facility
EDT Latitude Longitude Course Direction KTS MPH feet Rate Location/Type
Fri 06:03:31 PM 41.5192 -81.4289 147° Southeast 208 239 5,800  Level Cleveland Center
Fri 06:04:31 PM 41.4608 -81.4172 171° South 214 246 9,200 2,150 Climbing Cleveland Center
Fri 06:05:31 PM 41.3861 -81.3692 154° Southeast 261 300 10,100 400 Climbing Cleveland Center
Fri 06:06:31 PM 41.2925 -81.3156 157° South 338 389 10,000 -50 Descending Cleveland Center
Fri 06:07:31 PM 41.2117 -81.2650 155° Southeast 361 415 10,000 300 Level Cleveland Center
Fri 06:08:31 PM 41.1244 -81.1978 150° Southeast 366 421 10,600 500 Climbing Cleveland Center
Fri 06:09:31 PM 41.0603 -81.0897 128° Southeast 366 421 11,000 200 Climbing Cleveland Center
Fri 06:10:31 PM 41.0089 -80.9572 117° Southeast 366 421 11,000  Level Cleveland Center
Fri 06:11:31 PM 40.9592 -80.8389 119° Southeast 366 421 11,000  Level Cleveland Center
Fri 06:12:31 PM 40.9092 -80.7233 120° Southeast 366 421 11,000  Level Cleveland Center
Fri 06:13:31 PM 40.8531 -80.6189 125° Southeast 361 415 11,000 -250 Level Cleveland Center
Fri 06:14:31 PM 40.7739 -80.5339 141° Southeast 351 404 10,500 -500 Descending Cleveland Center
Fri 06:15:31 PM 40.6944 -80.4544 143° Southeast 356 410 10,000 -1,100 Descending Cleveland Center
Fri 06:16:31 PM 40.6486 -80.3642 124° Southeast 317 365 8,300 -1,000 Descending Cleveland Center
Fri 06:17:31 PM 40.6089 -80.2742 120° Southeast 297 342 8,000 -750 Descending Cleveland Center
Fri 06:18:31 PM 40.5814 -80.1894 113° Southeast 269 310 6,800 -1,450 Descending Cleveland Center
Fri 06:19:31 PM 40.5372 -80.1186 129° Southeast 255 293 5,100 -1,700 Descending Cleveland Center
Fri 06:21:00 PM 40.4833 -80.2167 143° Southeast  Level FlightAware Approximate
Fri 06:28:00 PM 40.4915 -80.2329 143° Southeast  Level Estimated
Fri 06:29:00 PM 40.4915 -80.2329 143° Southeast  Level Estimated
Fri 06:30:00 PM 40.4915 -80.2329 143° Southeast  Level Estimated

Login

Don't have an account? Register now (free) for customized features, flight alerts, and more!